createdAt,value
2017-11-11T00:01:36.058Z,6.30
2017-11-11T00:04:04.574Z,6.30
2017-11-11T00:06:32.051Z,6.30
2017-11-11T00:08:59.538Z,6.30
2017-11-11T00:11:27.777Z,6.20
2017-11-11T00:13:55.250Z,6.20
2017-11-11T00:16:22.742Z,6.20
2017-11-11T00:18:50.242Z,6.20
2017-11-11T00:21:17.743Z,6.10
2017-11-11T00:23:45.279Z,6.10
2017-11-11T00:26:12.793Z,6.00
2017-11-11T00:28:40.275Z,5.90
2017-11-11T00:31:07.770Z,5.90
2017-11-11T00:33:35.246Z,5.80
2017-11-11T00:36:03.486Z,5.80
2017-11-11T00:38:31.222Z,5.80
2017-11-11T00:40:58.695Z,5.80
2017-11-11T00:43:26.174Z,5.70
2017-11-11T00:45:53.663Z,5.70
2017-11-11T00:48:21.898Z,5.60
2017-11-11T00:50:49.370Z,5.60
2017-11-11T00:53:16.863Z,5.50
2017-11-11T00:55:44.331Z,5.50
2017-11-11T00:58:11.803Z,5.50
2017-11-11T01:00:39.290Z,5.50
2017-11-11T01:03:06.757Z,5.50
2017-11-11T01:05:34.226Z,5.50
2017-11-11T01:08:02.482Z,5.40
2017-11-11T01:10:29.959Z,5.40
2017-11-11T01:12:58.199Z,5.40
2017-11-11T01:15:25.687Z,5.30
2017-11-11T01:17:53.927Z,5.30
2017-11-11T01:20:21.398Z,5.30
2017-11-11T01:22:48.891Z,5.40
2017-11-11T01:25:16.430Z,5.30
2017-11-11T01:27:44.708Z,5.30
2017-11-11T01:30:13.397Z,5.20
2017-11-11T01:32:41.683Z,5.20
2017-11-11T01:35:09.959Z,5.00
2017-11-11T01:37:38.343Z,5.00
2017-11-11T01:40:05.833Z,4.90
2017-11-11T01:42:33.306Z,4.90
2017-11-11T01:45:00.802Z,4.90
2017-11-11T01:47:29.074Z,4.70
2017-11-11T01:49:57.311Z,4.70
2017-11-11T01:52:24.812Z,4.70
2017-11-11T01:54:53.053Z,4.70
2017-11-11T01:57:20.526Z,4.70
2017-11-11T01:59:48.018Z,4.70
2017-11-11T02:02:15.806Z,4.80
2017-11-11T02:04:43.278Z,4.80
2017-11-11T02:07:10.769Z,4.90
2017-11-11T02:09:39.011Z,4.90
2017-11-11T02:12:06.483Z,4.90
2017-11-11T02:14:33.989Z,4.90
2017-11-11T02:17:01.524Z,4.90
2017-11-11T02:19:29.803Z,4.80
2017-11-11T02:21:58.061Z,4.70
2017-11-11T02:24:26.203Z,4.70
2017-11-11T02:26:54.211Z,4.60
2017-11-11T02:29:22.575Z,4.60
2017-11-11T02:31:50.041Z,4.60
2017-11-11T02:34:17.546Z,4.60
2017-11-11T02:36:45.127Z,4.60
2017-11-11T02:39:12.602Z,4.50
2017-11-11T02:41:40.090Z,4.40
2017-11-11T02:44:08.795Z,4.30
2017-11-11T02:46:36.651Z,4.30
2017-11-11T02:49:05.254Z,4.30
2017-11-11T02:51:33.470Z,4.30
2017-11-11T02:54:00.938Z,4.30
2017-11-11T02:56:28.842Z,4.30
2017-11-11T02:58:56.392Z,4.40
2017-11-11T03:01:23.984Z,4.40
2017-11-11T03:03:51.823Z,4.40
2017-11-11T03:06:19.875Z,4.40
2017-11-11T03:08:48.693Z,4.50
2017-11-11T03:11:17.010Z,4.50
2017-11-11T03:13:44.547Z,4.50
2017-11-11T03:16:12.059Z,4.60
2017-11-11T03:18:40.305Z,4.60
2017-11-11T03:21:07.798Z,4.60
2017-11-11T03:23:36.035Z,4.60
2017-11-11T03:26:03.511Z,4.60
2017-11-11T03:28:31.006Z,4.70
2017-11-11T03:30:58.483Z,4.70
2017-11-11T03:33:25.954Z,4.70
2017-11-11T03:35:53.662Z,4.70
2017-11-11T03:38:22.182Z,4.70
2017-11-11T03:40:49.653Z,4.70
2017-11-11T03:43:17.140Z,4.70
2017-11-11T03:45:45.390Z,4.70
2017-11-11T03:48:12.862Z,4.70
2017-11-11T03:50:40.354Z,4.70
2017-11-11T03:53:08.602Z,4.70
2017-11-11T03:55:36.078Z,4.60
2017-11-11T03:58:04.333Z,4.60
2017-11-11T04:00:31.802Z,4.60
2017-11-11T04:02:59.306Z,4.60
2017-11-11T04:05:26.798Z,4.60
2017-11-11T04:07:54.266Z,4.60
2017-11-11T04:10:21.777Z,4.70
2017-11-11T04:12:49.310Z,4.70
2017-11-11T04:15:16.786Z,4.70
2017-11-11T04:17:44.254Z,4.80
2017-11-11T04:20:11.745Z,4.80
2017-11-11T04:22:39.474Z,4.70
2017-11-11T04:25:06.942Z,4.70
2017-11-11T04:27:34.467Z,4.80
2017-11-11T04:30:01.967Z,4.80
2017-11-11T04:32:29.507Z,4.80
2017-11-11T04:34:57.002Z,4.70
2017-11-11T04:37:24.470Z,4.60
2017-11-11T04:39:52.040Z,4.70
2017-11-11T04:42:20.310Z,4.60
2017-11-11T04:44:48.586Z,4.60
2017-11-11T04:47:16.817Z,4.60
2017-11-11T04:49:44.309Z,4.60
2017-11-11T04:52:11.780Z,4.60
2017-11-11T04:54:40.014Z,4.60
2017-11-11T04:57:07.511Z,4.60
2017-11-11T04:59:35.967Z,4.50
2017-11-11T05:02:03.438Z,4.50
2017-11-11T05:04:31.702Z,4.40
2017-11-11T05:06:59.998Z,4.40
2017-11-11T05:09:28.238Z,4.40
2017-11-11T05:11:55.730Z,4.40
2017-11-11T05:14:23.977Z,4.40
2017-11-11T05:16:51.458Z,4.40
2017-11-11T05:19:18.946Z,4.40
2017-11-11T05:21:46.417Z,4.40
2017-11-11T05:24:13.906Z,4.40
2017-11-11T05:26:41.387Z,4.40
2017-11-11T05:29:08.858Z,4.50
2017-11-11T05:31:37.098Z,4.40
2017-11-11T05:34:04.590Z,4.40
2017-11-11T05:36:32.826Z,4.50
2017-11-11T05:39:00.299Z,4.50
2017-11-11T05:41:27.794Z,4.60
2017-11-11T05:43:55.262Z,4.60
2017-11-11T05:46:22.742Z,4.60
2017-11-11T05:48:50.258Z,4.60
2017-11-11T05:51:18.483Z,4.70
2017-11-11T05:53:45.950Z,4.70
2017-11-11T05:56:13.442Z,4.70
2017-11-11T05:58:41.681Z,4.70
2017-11-11T06:01:09.155Z,4.70
2017-11-11T06:03:36.650Z,4.80
2017-11-11T06:06:04.119Z,4.80
2017-11-11T06:08:31.594Z,4.80
2017-11-11T06:10:59.087Z,4.80
2017-11-11T06:13:26.558Z,4.80
2017-11-11T06:15:54.798Z,4.80
2017-11-11T06:18:22.295Z,4.80
2017-11-11T06:20:50.531Z,4.80
2017-11-11T06:23:18.035Z,4.80
2017-11-11T06:25:45.534Z,4.80
2017-11-11T06:28:13.342Z,4.90
2017-11-11T06:30:41.723Z,4.90
2017-11-11T06:33:09.978Z,5.00
2017-11-11T06:35:37.491Z,4.90
2017-11-11T06:38:04.976Z,5.00
2017-11-11T06:40:32.993Z,5.00
2017-11-11T06:43:01.523Z,5.10
2017-11-11T06:45:28.999Z,5.10
2017-11-11T06:47:56.493Z,5.10
2017-11-11T06:50:24.487Z,5.10
2017-11-11T06:52:52.044Z,5.20
2017-11-11T06:55:19.555Z,5.20
2017-11-11T06:57:48.116Z,5.30
2017-11-11T07:00:15.874Z,5.20
2017-11-11T07:02:44.138Z,5.30
2017-11-11T07:05:11.614Z,5.30
2017-11-11T07:07:39.633Z,5.40
2017-11-11T07:10:07.596Z,5.30
2017-11-11T07:12:35.481Z,5.30
2017-11-11T07:15:03.239Z,5.40
2017-11-11T07:17:30.775Z,5.40
2017-11-11T07:19:59.409Z,5.50
2017-11-11T07:22:26.889Z,5.50
2017-11-11T07:24:54.387Z,5.50
2017-11-11T07:27:21.890Z,5.60
2017-11-11T07:29:49.403Z,5.60
2017-11-11T07:32:16.911Z,5.60
2017-11-11T07:34:44.398Z,5.60
2017-11-11T07:37:12.642Z,5.70
2017-11-11T07:39:40.146Z,5.70
2017-11-11T07:42:07.622Z,5.70
2017-11-11T07:44:35.098Z,5.70
2017-11-11T07:47:02.601Z,5.80
2017-11-11T07:49:30.845Z,5.80
2017-11-11T07:51:58.322Z,5.80
2017-11-11T07:54:25.814Z,5.80
2017-11-11T07:56:53.525Z,5.90
2017-11-11T07:59:21.007Z,5.90
2017-11-11T08:01:49.274Z,6.00
2017-11-11T08:04:16.754Z,6.00
2017-11-11T08:06:44.989Z,5.90
2017-11-11T08:09:12.478Z,5.90
2017-11-11T08:11:40.714Z,6.00
2017-11-11T08:14:08.208Z,5.90
2017-11-11T08:16:36.471Z,5.90
2017-11-11T08:19:03.952Z,5.90
2017-11-11T08:21:31.430Z,5.90
2017-11-11T08:23:58.929Z,5.90
2017-11-11T08:26:26.791Z,5.90
2017-11-11T08:28:54.267Z,5.80
2017-11-11T08:31:21.755Z,5.80
2017-11-11T08:33:49.226Z,5.80
2017-11-11T08:36:16.707Z,5.80
2017-11-11T08:38:44.212Z,5.80
2017-11-11T08:41:12.456Z,5.90
2017-11-11T08:43:39.932Z,5.90
2017-11-11T08:46:07.432Z,5.90
2017-11-11T08:48:34.910Z,5.90
2017-11-11T08:51:02.387Z,6.00
2017-11-11T08:53:29.887Z,6.00
2017-11-11T08:55:57.362Z,6.10
2017-11-11T08:58:24.834Z,6.10
2017-11-11T09:00:52.332Z,6.10
2017-11-11T09:03:19.806Z,6.10
2017-11-11T09:05:48.047Z,6.20
2017-11-11T09:08:15.542Z,6.20
2017-11-11T09:10:43.782Z,6.20
2017-11-11T09:13:11.255Z,6.20
2017-11-11T09:15:38.746Z,6.20
2017-11-11T09:18:06.211Z,6.20
2017-11-11T09:20:33.721Z,6.20
2017-11-11T09:23:01.553Z,6.20
2017-11-11T09:25:29.064Z,6.30
2017-11-11T09:27:57.335Z,6.30
2017-11-11T09:30:25.602Z,6.30
2017-11-11T09:32:53.850Z,6.30
2017-11-11T09:35:21.331Z,6.30
2017-11-11T09:37:48.842Z,6.40
2017-11-11T09:40:16.321Z,6.30
2017-11-11T09:42:43.825Z,6.40
2017-11-11T09:45:11.363Z,6.30
2017-11-11T09:47:38.850Z,6.40
2017-11-11T09:50:06.362Z,6.40
2017-11-11T09:52:33.864Z,6.40
2017-11-11T09:55:01.346Z,6.40
2017-11-11T09:57:28.815Z,6.50
2017-11-11T09:59:56.310Z,6.40
2017-11-11T10:02:24.551Z,6.30
2017-11-11T10:04:52.058Z,6.30
2017-11-11T10:07:20.318Z,6.40
2017-11-11T10:09:48.566Z,6.40
2017-11-11T10:12:16.338Z,6.40
2017-11-11T10:14:43.834Z,6.40
2017-11-11T10:17:12.070Z,6.50
2017-11-11T10:19:39.543Z,6.50
2017-11-11T10:22:07.039Z,6.50
2017-11-11T10:24:35.639Z,6.50
2017-11-11T10:27:03.111Z,6.50
2017-11-11T10:29:30.618Z,6.50
2017-11-11T10:31:58.861Z,6.50
2017-11-11T10:34:26.364Z,6.50
2017-11-11T10:36:53.896Z,6.40
2017-11-11T10:39:22.162Z,6.40
2017-11-11T10:41:49.672Z,6.40
2017-11-11T10:44:17.208Z,6.40
2017-11-11T10:46:44.719Z,6.40
2017-11-11T10:49:12.230Z,6.50
2017-11-11T10:51:39.779Z,6.50
2017-11-11T10:54:07.260Z,6.40
2017-11-11T10:56:34.755Z,6.40
2017-11-11T10:59:02.288Z,6.40
2017-11-11T11:01:30.055Z,6.40
2017-11-11T11:03:57.610Z,6.50
2017-11-11T11:06:25.110Z,6.50
2017-11-11T11:09:01.399Z,6.50
2017-11-11T11:11:29.194Z,6.50
2017-11-11T11:13:56.670Z,6.60
2017-11-11T11:16:24.151Z,6.60
2017-11-11T11:18:52.422Z,6.70
2017-11-11T11:21:19.903Z,6.70
2017-11-11T11:23:48.187Z,6.70
2017-11-11T11:26:15.683Z,6.70
2017-11-11T11:28:43.155Z,6.70
2017-11-11T11:31:10.630Z,6.70
2017-11-11T11:33:38.126Z,6.60
2017-11-11T11:36:05.602Z,6.60
2017-11-11T11:38:33.087Z,6.60
2017-11-11T11:41:00.584Z,6.60
2017-11-11T11:43:28.827Z,6.70
2017-11-11T11:45:56.311Z,6.70
2017-11-11T11:48:24.629Z,6.60
2017-11-11T11:50:52.107Z,6.60
2017-11-11T11:53:19.579Z,6.70
2017-11-11T11:55:47.856Z,6.70
2017-11-11T11:58:15.420Z,6.70
2017-11-11T12:00:42.899Z,6.70
2017-11-11T12:03:11.161Z,6.80
2017-11-11T12:05:39.403Z,6.80
2017-11-11T12:08:07.164Z,6.70
2017-11-11T12:10:34.670Z,6.70
2017-11-11T12:13:03.189Z,6.70
2017-11-11T12:15:30.695Z,6.70
2017-11-11T12:17:58.187Z,6.80
2017-11-11T12:20:25.676Z,6.80
2017-11-11T12:22:53.176Z,6.80
2017-11-11T12:25:21.742Z,6.80
2017-11-11T12:27:50.028Z,6.80
2017-11-11T12:30:17.565Z,6.80
2017-11-11T12:32:45.219Z,6.90
2017-11-11T12:35:12.790Z,6.90
2017-11-11T12:37:40.522Z,6.90
2017-11-11T12:40:08.078Z,6.90
2017-11-11T12:42:35.576Z,6.80
2017-11-11T12:45:03.519Z,6.80
2017-11-11T12:47:31.867Z,6.80
2017-11-11T12:49:59.588Z,6.80
2017-11-11T12:52:27.076Z,6.70
2017-11-11T12:54:54.569Z,6.70
2017-11-11T12:57:22.051Z,6.80
2017-11-11T12:59:49.587Z,6.80
2017-11-11T13:02:17.085Z,6.80
2017-11-11T13:04:45.792Z,6.80
2017-11-11T13:07:13.369Z,6.70
2017-11-11T13:09:40.886Z,6.80
2017-11-11T13:12:09.126Z,6.80
2017-11-11T13:14:36.599Z,6.80
2017-11-11T13:17:04.094Z,6.70
2017-11-11T13:19:32.389Z,6.80
2017-11-11T13:21:59.879Z,6.80
2017-11-11T13:24:27.378Z,6.70
2017-11-11T13:26:55.635Z,6.70
2017-11-11T13:29:23.106Z,6.70
2017-11-11T13:31:51.388Z,6.80
2017-11-11T13:34:18.883Z,6.70
2017-11-11T13:36:46.378Z,6.70
2017-11-11T13:39:13.882Z,6.80
2017-11-11T13:41:41.382Z,6.80
2017-11-11T13:44:08.855Z,6.80
2017-11-11T13:46:36.354Z,6.80
2017-11-11T13:49:03.835Z,6.70
2017-11-11T13:51:31.322Z,6.80
2017-11-11T13:53:58.841Z,6.80
2017-11-11T13:56:26.314Z,6.80
2017-11-11T13:58:53.781Z,6.80
2017-11-11T14:01:21.282Z,6.80
2017-11-11T14:03:48.759Z,6.80
2017-11-11T14:06:16.234Z,6.80
2017-11-11T14:08:43.793Z,6.80
2017-11-11T14:11:11.280Z,6.80
2017-11-11T14:13:39.542Z,6.80
2017-11-11T14:16:07.030Z,6.80
2017-11-11T14:18:35.266Z,6.80
2017-11-11T14:21:02.738Z,6.80
2017-11-11T14:23:30.236Z,6.80
2017-11-11T14:25:57.716Z,6.80
2017-11-11T14:28:25.187Z,6.80
2017-11-11T14:30:52.686Z,6.90
2017-11-11T14:33:20.158Z,6.90
2017-11-11T14:35:48.395Z,6.90
2017-11-11T14:38:15.898Z,6.90
2017-11-11T14:40:43.380Z,6.90
2017-11-11T14:43:10.851Z,7.00
2017-11-11T14:45:38.346Z,7.00
2017-11-11T14:48:05.818Z,7.00
2017-11-11T14:50:34.059Z,7.00
2017-11-11T14:53:01.574Z,7.00
2017-11-11T14:55:29.262Z,7.00
2017-11-11T14:57:56.738Z,7.10
2017-11-11T15:00:24.237Z,7.00
2017-11-11T15:02:52.474Z,7.10
2017-11-11T15:05:19.952Z,7.10
2017-11-11T15:07:48.211Z,7.10
2017-11-11T15:10:15.685Z,7.10
2017-11-11T15:12:43.923Z,7.10
2017-11-11T15:15:11.417Z,7.10
2017-11-11T15:17:39.658Z,7.20
2017-11-11T15:20:07.141Z,7.10
2017-11-11T15:22:34.635Z,7.20
2017-11-11T15:25:02.103Z,7.20
2017-11-11T15:27:29.620Z,7.20
2017-11-11T15:29:57.883Z,7.20
2017-11-11T15:32:25.435Z,7.20
2017-11-11T15:34:52.950Z,7.30
2017-11-11T15:37:20.452Z,7.30
2017-11-11T15:39:47.930Z,7.20
2017-11-11T15:42:16.197Z,7.30
2017-11-11T15:44:43.694Z,7.20
2017-11-11T15:47:11.205Z,7.30
2017-11-11T15:49:38.737Z,7.30
2017-11-11T15:52:06.323Z,7.30
2017-11-11T15:54:33.872Z,7.30
2017-11-11T15:57:01.359Z,7.40
2017-11-11T15:59:29.930Z,7.40
2017-11-11T16:01:58.216Z,7.40
2017-11-11T16:04:26.463Z,7.50
2017-11-11T16:06:53.977Z,7.40
2017-11-11T16:09:21.448Z,7.50
2017-11-11T16:11:48.914Z,7.50
2017-11-11T16:14:16.405Z,7.50
2017-11-11T16:16:43.886Z,7.50
2017-11-11T16:19:11.444Z,7.50
2017-11-11T16:21:39.752Z,7.60
2017-11-11T16:24:07.255Z,7.50
2017-11-11T16:26:35.530Z,7.60
2017-11-11T16:29:03.075Z,7.60
2017-11-11T16:31:30.614Z,7.60
2017-11-11T16:33:58.086Z,7.60
2017-11-11T16:36:25.790Z,7.60
2017-11-11T16:38:53.345Z,7.60
2017-11-11T16:41:21.588Z,7.70
2017-11-11T16:43:49.080Z,7.60
2017-11-11T16:46:17.339Z,7.70
2017-11-11T16:48:44.806Z,7.70
2017-11-11T16:51:13.067Z,7.70
2017-11-11T16:53:40.591Z,7.70
2017-11-11T16:56:08.357Z,7.70
2017-11-11T16:58:35.853Z,7.70
2017-11-11T17:01:03.326Z,7.70
2017-11-11T17:03:31.567Z,7.80
2017-11-11T17:05:59.079Z,7.80
2017-11-11T17:08:26.566Z,7.80
2017-11-11T17:10:54.323Z,7.80
2017-11-11T17:13:21.818Z,7.80
2017-11-11T17:15:49.288Z,7.80
2017-11-11T17:18:17.578Z,7.80
2017-11-11T17:20:45.111Z,7.80
2017-11-11T17:23:12.687Z,7.80
2017-11-11T17:25:41.027Z,7.80
2017-11-11T17:28:08.587Z,7.80
2017-11-11T17:30:36.103Z,7.80
2017-11-11T17:33:03.634Z,7.80
2017-11-11T17:35:31.929Z,7.80
2017-11-11T17:37:59.728Z,7.80
2017-11-11T17:40:27.309Z,7.90
2017-11-11T17:42:54.827Z,7.90
2017-11-11T17:45:22.351Z,7.90
2017-11-11T17:47:50.626Z,7.90
2017-11-11T17:50:18.936Z,8.00
2017-11-11T17:52:46.684Z,8.00
2017-11-11T17:55:14.187Z,7.90
2017-11-11T17:57:41.723Z,8.00
2017-11-11T18:00:09.240Z,8.00
2017-11-11T18:02:37.514Z,8.00
2017-11-11T18:05:06.063Z,8.00
2017-11-11T18:07:33.587Z,8.00
2017-11-11T18:10:01.100Z,8.00
2017-11-11T18:12:28.737Z,8.00
2017-11-11T18:14:56.259Z,8.00
2017-11-11T18:17:23.814Z,8.00
2017-11-11T18:19:51.322Z,8.00
2017-11-11T18:22:18.854Z,8.10
2017-11-11T18:24:46.370Z,8.10
2017-11-11T18:27:14.667Z,8.10
2017-11-11T18:29:42.196Z,8.10
2017-11-11T18:32:09.720Z,8.10
2017-11-11T18:34:37.233Z,8.10
2017-11-11T18:37:05.488Z,8.20
2017-11-11T18:39:33.031Z,8.20
2017-11-11T18:42:00.660Z,8.20
2017-11-11T18:44:28.176Z,8.20
2017-11-11T18:46:56.423Z,8.20
2017-11-11T18:49:23.922Z,8.20
2017-11-11T18:51:51.459Z,8.20
2017-11-11T18:54:19.202Z,8.30
2017-11-11T18:56:47.419Z,8.20
2017-11-11T18:59:14.917Z,8.30
2017-11-11T19:01:42.498Z,8.30
2017-11-11T19:04:10.402Z,8.30
2017-11-11T19:06:43.534Z,8.30
2017-11-11T19:09:11.699Z,8.30
2017-11-11T19:11:40.690Z,8.40
2017-11-11T19:14:09.112Z,8.40
2017-11-11T19:16:37.510Z,8.40
2017-11-11T19:19:06.895Z,8.40
2017-11-11T19:21:35.438Z,8.40
2017-11-11T19:24:03.728Z,8.40
2017-11-11T19:26:31.478Z,8.50
2017-11-11T19:28:59.902Z,8.50
2017-11-11T19:31:28.257Z,8.50
2017-11-11T19:33:55.775Z,8.50
2017-11-11T19:36:23.280Z,8.50
2017-11-11T19:38:52.542Z,8.50
2017-11-11T19:41:20.588Z,8.50
2017-11-11T19:43:49.212Z,8.50
2017-11-11T19:46:16.789Z,8.50
2017-11-11T19:48:44.316Z,8.50
2017-11-11T19:51:11.794Z,8.50
2017-11-11T19:53:39.447Z,8.60
2017-11-11T19:56:07.041Z,8.60
2017-11-11T19:58:35.291Z,8.60
2017-11-11T20:01:02.960Z,8.60
2017-11-11T20:03:30.434Z,8.60
2017-11-11T20:05:58.707Z,8.60
2017-11-11T20:08:26.388Z,8.60
2017-11-11T20:10:53.909Z,8.60
2017-11-11T20:13:21.424Z,8.60
2017-11-11T20:15:48.960Z,8.60
2017-11-11T20:18:17.235Z,8.60
2017-11-11T20:20:45.511Z,8.70
2017-11-11T20:23:13.964Z,8.70
2017-11-11T20:25:41.474Z,8.60
2017-11-11T20:28:08.983Z,8.70
2017-11-11T20:30:36.512Z,8.70
2017-11-11T20:33:04.779Z,8.70
2017-11-11T20:35:32.280Z,8.60
2017-11-11T20:38:00.112Z,8.70
2017-11-11T20:40:28.383Z,8.70
2017-11-11T20:42:55.920Z,8.70
2017-11-11T20:45:23.698Z,8.70
2017-11-11T20:47:51.198Z,8.70
2017-11-11T20:50:18.743Z,8.70
2017-11-11T20:52:46.276Z,8.70
2017-11-11T20:55:13.742Z,8.80
2017-11-11T20:57:41.255Z,8.80
2017-11-11T21:00:09.810Z,8.80
2017-11-11T21:02:38.170Z,8.80
2017-11-11T21:05:06.999Z,8.80
2017-11-11T21:07:35.266Z,8.80
2017-11-11T21:10:02.752Z,8.80
2017-11-11T21:12:30.521Z,8.80
2017-11-11T21:15:00.035Z,8.90
2017-11-11T21:17:27.606Z,8.80
2017-11-11T21:19:55.108Z,8.90
2017-11-11T21:22:24.257Z,8.90
2017-11-11T21:24:51.792Z,8.90
2017-11-11T21:27:19.736Z,8.90
2017-11-11T21:29:48.932Z,8.90
2017-11-11T21:32:16.495Z,8.90
2017-11-11T21:34:44.735Z,8.90
2017-11-11T21:37:12.250Z,8.80
2017-11-11T21:39:39.740Z,8.80
2017-11-11T21:42:09.316Z,8.80
2017-11-11T21:44:36.991Z,8.80
2017-11-11T21:47:04.495Z,8.80
2017-11-11T21:49:32.813Z,8.70
2017-11-11T21:52:00.450Z,8.70
2017-11-11T21:54:28.690Z,8.60
2017-11-11T21:56:56.234Z,8.60
2017-11-11T21:59:23.731Z,8.60
2017-11-11T22:01:51.247Z,8.50
2017-11-11T22:04:18.776Z,8.50
2017-11-11T22:06:46.361Z,8.40
2017-11-11T22:09:13.862Z,8.40
2017-11-11T22:11:41.372Z,8.30
2017-11-11T22:14:08.914Z,8.20
2017-11-11T22:16:36.447Z,8.10
2017-11-11T22:19:04.720Z,7.90
2017-11-11T22:21:32.982Z,7.90
2017-11-11T22:24:00.488Z,7.80
2017-11-11T22:26:27.997Z,7.80
2017-11-11T22:28:55.495Z,7.80
2017-11-11T22:31:22.976Z,7.70
2017-11-11T22:33:51.559Z,7.60
2017-11-11T22:36:19.049Z,7.60
2017-11-11T22:38:46.556Z,7.60
2017-11-11T22:41:14.024Z,7.50
2017-11-11T22:43:41.527Z,7.50
2017-11-11T22:46:09.113Z,7.40
2017-11-11T22:48:37.410Z,7.40
2017-11-11T22:51:04.969Z,7.40
2017-11-11T22:53:32.451Z,7.40
2017-11-11T22:56:00.016Z,7.30
2017-11-11T22:58:27.510Z,7.30
2017-11-11T23:00:56.328Z,7.30
2017-11-11T23:03:23.862Z,7.30
2017-11-11T23:05:52.215Z,7.40
2017-11-11T23:08:20.265Z,7.30
2017-11-11T23:10:48.834Z,7.40
2017-11-11T23:13:16.375Z,7.30
2017-11-11T23:15:44.830Z,7.40
2017-11-11T23:18:13.075Z,7.30
2017-11-11T23:20:40.569Z,7.30
2017-11-11T23:23:08.883Z,7.30
2017-11-11T23:25:36.355Z,7.30
2017-11-11T23:28:03.851Z,7.30
2017-11-11T23:30:32.091Z,7.20
2017-11-11T23:33:00.335Z,7.20
2017-11-11T23:35:27.854Z,7.20
2017-11-11T23:37:56.142Z,7.20
2017-11-11T23:40:24.378Z,7.20
2017-11-11T23:42:51.871Z,7.20
2017-11-11T23:45:20.488Z,7.20
2017-11-11T23:47:47.959Z,7.20
2017-11-11T23:50:16.218Z,7.20
2017-11-11T23:52:43.724Z,7.20
2017-11-11T23:55:11.235Z,7.30
2017-11-11T23:57:38.733Z,7.30
